Terminal Aerodrome Forecast
Issued by NWS

Home | Current Version | Previous Version | Text Only | Print | Product List | Glossary On
Versions: 1 2 3 4 5 6 7 8 9 10 11 12 13
625
FTUS41 KPBZ 211537 AAA
TAFFKL
TAF AMD
KFKL 211537Z 2116/2212 13007KT P6SM SCT045
     FM220600 VRB03KT 4SM BR BKN050
      AMD NOT SKED=

USA.gov is the U.S. government's official web portal to all federal, state and local government web resources and services.